createdAt,value
2022-11-29T00:01:43.248Z,96218.94
2022-11-29T00:04:12.178Z,96231.78
2022-11-29T00:06:41.010Z,96248.84
2022-11-29T00:09:13.754Z,96199.06
2022-11-29T00:12:02.148Z,96220.88
2022-11-29T00:14:30.917Z,96262.03
2022-11-29T00:17:02.481Z,96249.13
2022-11-29T00:19:31.532Z,96190.41
2022-11-29T00:22:00.000Z,96252.00
2022-11-29T00:24:28.568Z,96207.97
2022-11-29T00:26:56.853Z,96248.88
2022-11-29T00:29:25.150Z,96201.66
2022-11-29T00:31:53.428Z,96234.31
2022-11-29T00:34:23.068Z,96201.38
2022-11-29T00:36:51.333Z,96207.41
2022-11-29T00:39:19.841Z,96223.75
2022-11-29T00:41:48.161Z,96252.16
2022-11-29T00:44:20.183Z,96257.38
2022-11-29T00:46:49.216Z,96178.72
2022-11-29T00:49:17.814Z,96058.75
2022-11-29T00:51:47.712Z,96228.81
2022-11-29T00:54:16.138Z,96244.91
2022-11-29T00:56:44.486Z,96194.00
2022-11-29T00:59:12.733Z,96203.44
2022-11-29T01:01:41.148Z,96242.28
2022-11-29T01:04:10.765Z,96244.06
2022-11-29T01:06:39.035Z,96227.03
2022-11-29T01:09:08.678Z,96251.31
2022-11-29T01:11:37.123Z,96251.59
2022-11-29T01:14:05.995Z,96254.34
2022-11-29T01:16:34.550Z,96191.75
2022-11-29T01:19:03.327Z,96251.59
2022-11-29T01:21:32.014Z,96294.00
2022-11-29T01:24:01.774Z,96227.72
2022-11-29T01:26:33.106Z,96239.41
2022-11-29T01:29:01.555Z,96259.53
2022-11-29T01:31:32.540Z,96252.72
2022-11-29T01:34:03.486Z,96250.09
2022-11-29T01:36:32.411Z,96200.00
2022-11-29T01:39:01.004Z,96217.59
2022-11-29T01:41:33.383Z,96266.53
2022-11-29T01:44:05.502Z,96239.25
2022-11-29T01:46:36.915Z,96232.53
2022-11-29T01:49:11.384Z,96246.69
2022-11-29T01:51:44.380Z,96237.75
2022-11-29T01:54:14.089Z,96257.09
2022-11-29T01:56:46.651Z,96269.03
2022-11-29T01:59:20.807Z,96239.66
2022-11-29T02:01:49.139Z,96300.44
2022-11-29T02:04:18.701Z,96269.16
2022-11-29T02:06:47.821Z,96239.13
2022-11-29T02:09:21.781Z,96201.94
2022-11-29T02:12:16.452Z,96074.66
2022-11-29T02:15:14.475Z,96232.38
2022-11-29T02:18:02.524Z,96233.19
2022-11-29T02:21:04.872Z,96235.69
2022-11-29T02:24:15.100Z,96238.97
2022-11-29T02:27:41.608Z,96214.00
2022-11-29T02:30:27.004Z,96184.25
2022-11-29T02:33:41.256Z,96229.91
2022-11-29T02:36:34.091Z,96238.97
2022-11-29T02:39:39.448Z,96254.34
2022-11-29T02:42:56.041Z,96226.06
2022-11-29T02:45:51.793Z,96204.41
2022-11-29T02:48:54.956Z,96259.84
2022-11-29T02:51:32.365Z,96229.25
2022-11-29T02:54:07.920Z,96260.94
2022-11-29T02:56:44.499Z,96247.34
2022-11-29T02:59:28.290Z,96261.78
2022-11-29T03:02:14.656Z,96264.38
2022-11-29T03:04:51.065Z,96269.31
2022-11-29T03:07:29.553Z,96246.13
2022-11-29T03:10:05.669Z,96249.28
2022-11-29T03:12:42.149Z,96286.47
2022-11-29T03:15:24.045Z,96257.94
2022-11-29T03:18:04.154Z,96219.09
2022-11-29T03:20:50.129Z,96267.81
2022-11-29T03:23:25.934Z,96283.72
2022-11-29T03:25:59.346Z,96281.66
2022-11-29T03:28:32.771Z,96263.69
2022-11-29T03:31:09.096Z,96208.25
2022-11-29T03:33:49.485Z,96234.59
2022-11-29T03:36:30.925Z,96300.47
2022-11-29T03:39:06.361Z,96302.41
2022-11-29T03:41:42.612Z,96266.56
2022-11-29T03:44:17.386Z,96280.41
2022-11-29T03:46:53.667Z,96279.63
2022-11-29T03:49:27.882Z,96281.25
2022-11-29T03:52:13.675Z,96212.06
2022-11-29T03:54:56.746Z,96243.38
2022-11-29T03:57:33.407Z,96314.03
2022-11-29T04:00:07.175Z,96276.00
2022-11-29T04:03:12.739Z,96292.50
2022-11-29T04:06:05.418Z,96267.25
2022-11-29T04:08:58.798Z,96248.34
2022-11-29T04:12:22.523Z,96264.78
2022-11-29T04:15:40.356Z,96303.75
2022-11-29T04:18:53.234Z,96244.06
2022-11-29T04:21:35.275Z,96261.22
2022-11-29T04:25:07.852Z,96267.94
2022-11-29T04:28:15.108Z,96277.41
2022-11-29T04:30:55.269Z,96221.09
2022-11-29T04:34:15.481Z,96264.38
2022-11-29T04:37:19.838Z,96251.75
2022-11-29T04:40:05.041Z,96298.00
2022-11-29T04:43:11.120Z,96296.88
2022-11-29T04:46:14.721Z,96241.19
2022-11-29T04:49:04.909Z,96276.44
2022-11-29T04:51:59.416Z,96298.94
2022-11-29T04:54:36.040Z,96274.94
2022-11-29T04:57:10.399Z,96313.66
2022-11-29T04:59:45.817Z,96237.06
2022-11-29T05:02:36.149Z,96298.00
2022-11-29T05:05:21.545Z,96331.66
2022-11-29T05:08:02.505Z,96321.63
2022-11-29T05:10:42.471Z,96305.81
2022-11-29T05:13:21.440Z,96304.75
2022-11-29T05:16:13.288Z,96266.16
2022-11-29T05:19:29.989Z,96270.56
2022-11-29T05:22:16.008Z,96344.84
2022-11-29T05:25:03.072Z,96290.88
2022-11-29T05:27:45.594Z,96337.28
2022-11-29T05:30:19.381Z,96330.69
2022-11-29T05:32:57.914Z,96363.59
2022-11-29T05:35:52.436Z,96296.09
2022-11-29T05:39:01.749Z,96315.03
2022-11-29T05:41:55.032Z,96312.00
2022-11-29T05:44:33.590Z,96362.53
2022-11-29T05:47:06.755Z,96319.16
2022-11-29T05:49:43.387Z,96299.09
2022-11-29T05:52:25.437Z,96368.31
2022-11-29T05:55:20.753Z,96322.97
2022-11-29T05:57:57.059Z,96332.88
2022-11-29T06:00:26.683Z,96317.22
2022-11-29T06:03:04.912Z,96335.06
2022-11-29T06:05:39.693Z,96299.25
2022-11-29T06:08:16.235Z,96371.75
2022-11-29T06:10:57.689Z,96340.03
2022-11-29T06:13:39.692Z,96356.75
2022-11-29T06:16:31.500Z,96310.38
2022-11-29T06:19:30.312Z,96354.56
2022-11-29T06:22:26.466Z,96357.75
2022-11-29T06:25:13.462Z,96365.00
2022-11-29T06:27:57.584Z,96372.69
2022-11-29T06:30:31.689Z,96390.25
2022-11-29T06:33:07.476Z,96439.88
2022-11-29T06:35:46.351Z,96356.75
2022-11-29T06:38:22.803Z,96338.78
2022-11-29T06:40:54.940Z,96286.19
2022-11-29T06:43:27.815Z,96399.75
2022-11-29T06:46:02.058Z,96382.31
2022-11-29T06:48:36.643Z,96408.00
2022-11-29T06:51:18.302Z,96358.97
2022-11-29T06:53:56.827Z,96363.22
2022-11-29T06:56:34.304Z,96363.13
2022-11-29T06:59:12.035Z,96364.91
2022-11-29T07:01:47.537Z,96343.59
2022-11-29T07:04:45.441Z,96379.81
2022-11-29T07:07:20.570Z,96347.84
2022-11-29T07:09:50.968Z,96390.41
2022-11-29T07:12:20.637Z,96420.81
2022-11-29T07:14:49.766Z,96409.66
2022-11-29T07:17:26.095Z,96373.81
2022-11-29T07:20:03.813Z,96375.47
2022-11-29T07:22:50.723Z,96380.56
2022-11-29T07:25:31.257Z,96391.38
2022-11-29T07:28:12.315Z,96420.94
2022-11-29T07:30:51.525Z,96359.25
2022-11-29T07:33:28.645Z,96419.41
2022-11-29T07:36:07.060Z,96418.03
2022-11-29T07:38:51.747Z,96457.84
2022-11-29T07:41:29.058Z,96421.06
2022-11-29T07:44:06.637Z,96412.28
2022-11-29T07:46:34.941Z,96402.53
2022-11-29T07:49:03.255Z,96426.81
2022-11-29T07:51:33.046Z,96429.88
2022-11-29T07:54:02.730Z,96438.91
2022-11-29T07:56:30.971Z,96429.28
2022-11-29T07:58:59.319Z,96388.38
2022-11-29T08:01:27.651Z,96386.72
2022-11-29T08:03:55.956Z,96423.53
2022-11-29T08:06:27.715Z,96461.31
2022-11-29T08:08:58.904Z,96417.63
2022-11-29T08:11:29.141Z,96302.13
2022-11-29T08:13:58.645Z,96328.22
2022-11-29T08:16:27.215Z,96408.16
2022-11-29T08:18:55.597Z,96433.88
2022-11-29T08:21:24.105Z,96201.53
2022-11-29T08:23:52.895Z,96424.34
2022-11-29T08:26:25.616Z,96435.22
2022-11-29T08:28:59.477Z,96398.00
2022-11-29T08:31:27.883Z,96423.56
2022-11-29T08:33:56.329Z,96382.03
2022-11-29T08:36:24.586Z,96434.25
2022-11-29T08:39:00.097Z,96249.63
2022-11-29T08:41:31.538Z,96435.75
2022-11-29T08:44:01.183Z,96442.53
2022-11-29T08:46:43.366Z,96438.38
2022-11-29T08:49:11.626Z,96452.41
2022-11-29T08:51:40.006Z,96502.44
2022-11-29T08:54:07.657Z,96468.09
2022-11-29T08:59:27.623Z,96451.03
2022-11-29T09:01:56.464Z,96479.34
2022-11-29T09:04:24.851Z,96507.53
2022-11-29T09:06:53.764Z,96503.25
2022-11-29T09:09:22.100Z,96466.28
2022-11-29T09:11:50.509Z,96500.38
2022-11-29T09:14:19.948Z,96432.47
2022-11-29T09:16:49.658Z,96462.56
2022-11-29T09:19:18.121Z,96477.97
2022-11-29T09:21:46.459Z,96488.13
2022-11-29T09:24:14.889Z,96524.84
2022-11-29T09:26:46.919Z,96491.28
2022-11-29T09:29:16.895Z,96467.53
2022-11-29T09:31:46.172Z,96455.03
2022-11-29T09:34:16.411Z,96419.56
2022-11-29T09:36:45.107Z,96474.94
2022-11-29T09:39:13.412Z,96469.72
2022-11-29T09:42:27.216Z,96480.44
2022-11-29T09:45:04.589Z,96509.88
2022-11-29T09:48:03.293Z,96486.22
2022-11-29T09:50:36.056Z,96459.56
2022-11-29T09:53:37.963Z,96470.84
2022-11-29T09:56:19.191Z,96468.09
2022-11-29T09:58:54.060Z,96439.44
2022-11-29T10:01:28.388Z,96468.91
2022-11-29T10:04:02.405Z,96498.34
2022-11-29T10:06:38.837Z,96454.34
2022-11-29T10:09:16.629Z,96481.25
2022-11-29T10:11:58.422Z,96455.81
2022-11-29T10:14:32.550Z,96487.19
2022-11-29T10:17:08.256Z,96474.66
2022-11-29T10:19:40.169Z,96462.59
2022-11-29T10:22:21.130Z,96459.25
2022-11-29T10:24:54.476Z,96497.22
2022-11-29T10:27:25.049Z,96447.47
2022-11-29T10:29:53.969Z,96438.25
2022-11-29T10:32:24.708Z,96522.94
2022-11-29T10:34:53.211Z,96421.06
2022-11-29T10:37:24.915Z,96535.19
2022-11-29T10:39:58.729Z,96495.16
2022-11-29T10:42:46.992Z,96520.88
2022-11-29T10:45:24.028Z,96512.63
2022-11-29T10:47:55.554Z,96460.34
2022-11-29T10:50:27.481Z,96475.09
2022-11-29T10:53:02.198Z,96504.91
2022-11-29T10:55:37.893Z,96485.50
2022-11-29T10:58:15.935Z,96524.59
2022-11-29T11:00:54.102Z,96504.09
2022-11-29T11:03:39.401Z,96450.44
2022-11-29T11:06:13.356Z,96497.75
2022-11-29T11:08:47.531Z,96510.97
2022-11-29T11:11:25.014Z,96439.72
2022-11-29T11:14:01.518Z,96510.69
2022-11-29T11:16:35.598Z,96455.66
2022-11-29T11:19:28.933Z,96464.72
2022-11-29T11:21:58.378Z,96366.38
2022-11-29T11:24:31.637Z,96446.59
2022-11-29T11:27:01.762Z,96453.44
2022-11-29T11:29:37.438Z,96527.72
2022-11-29T11:32:09.189Z,96486.91
2022-11-29T11:34:39.447Z,96527.47
2022-11-29T11:37:26.980Z,96446.88
2022-11-29T11:39:58.808Z,96499.13
2022-11-29T11:42:38.760Z,96531.44
2022-11-29T11:45:32.649Z,96518.09
2022-11-29T11:48:05.761Z,96520.16
2022-11-29T11:50:38.947Z,96509.72
2022-11-29T11:53:21.282Z,96516.19
2022-11-29T11:56:00.093Z,96562.69
2022-11-29T11:58:32.982Z,96505.84
2022-11-29T12:01:16.177Z,96471.22
2022-11-29T12:03:55.627Z,96537.22
2022-11-29T12:06:41.014Z,96512.03
2022-11-29T12:09:21.082Z,96403.22
2022-11-29T12:12:01.557Z,96496.78
2022-11-29T12:14:40.474Z,96517.00
2022-11-29T12:17:20.372Z,96523.75
2022-11-29T12:20:02.945Z,96591.16
2022-11-29T12:22:43.941Z,96549.19
2022-11-29T12:25:20.799Z,96511.09
2022-11-29T12:27:51.888Z,96481.25
2022-11-29T12:30:21.048Z,96591.84
2022-11-29T12:33:17.854Z,96543.31
2022-11-29T12:36:18.464Z,96525.53
2022-11-29T12:39:04.807Z,96550.03
2022-11-29T12:41:43.092Z,96540.81
2022-11-29T12:44:30.838Z,96579.47
2022-11-29T12:50:12.067Z,96437.44
2022-11-29T12:52:48.601Z,96538.44
2022-11-29T12:55:26.141Z,96554.00
2022-11-29T12:58:11.115Z,96463.09
2022-11-29T13:00:54.186Z,96510.13
2022-11-29T13:03:31.862Z,96496.94
2022-11-29T13:06:12.449Z,96357.34
2022-11-29T13:09:04.827Z,96529.38
2022-11-29T13:11:37.744Z,96543.28
2022-11-29T13:14:41.616Z,96517.13
2022-11-29T13:17:06.323Z,96527.19
2022-11-29T13:19:41.640Z,96533.81
2022-11-29T13:22:18.564Z,96615.53
2022-11-29T13:24:51.453Z,96587.84
2022-11-29T13:27:24.433Z,96596.78
2022-11-29T13:29:52.804Z,96539.03
2022-11-29T13:32:34.241Z,96557.84
2022-11-29T13:35:08.461Z,96551.13
2022-11-29T13:37:49.384Z,96533.09
2022-11-29T13:40:32.548Z,96560.75
2022-11-29T13:43:12.200Z,96586.59
2022-11-29T13:45:46.095Z,96524.59
2022-11-29T13:48:37.035Z,96489.94
2022-11-29T13:51:29.562Z,96547.28
2022-11-29T13:54:01.564Z,96588.28
2022-11-29T13:56:36.676Z,96616.06
2022-11-29T13:59:14.920Z,96592.41
2022-11-29T14:01:48.975Z,96591.97
2022-11-29T14:04:32.490Z,96574.50
2022-11-29T14:07:09.122Z,96575.03
2022-11-29T14:09:44.867Z,96612.31
2022-11-29T14:12:38.310Z,96617.91
2022-11-29T14:15:28.376Z,96511.06
2022-11-29T14:17:58.710Z,96566.78
2022-11-29T14:20:59.088Z,96601.81
2022-11-29T14:23:42.368Z,96592.91
2022-11-29T14:26:30.919Z,96594.16
2022-11-29T14:29:00.332Z,96607.47
2022-11-29T14:31:50.654Z,96171.44
2022-11-29T14:34:35.550Z,96579.53
2022-11-29T14:37:25.140Z,96595.06
2022-11-29T14:39:56.241Z,96535.84
2022-11-29T14:42:32.434Z,96620.75
2022-11-29T14:45:04.806Z,96584.06
2022-11-29T14:47:37.159Z,96608.53
2022-11-29T14:50:10.398Z,96595.03
2022-11-29T14:52:51.103Z,96623.38
2022-11-29T14:55:34.163Z,96640.84
2022-11-29T14:58:20.321Z,96613.06
2022-11-29T15:01:10.935Z,96637.91
2022-11-29T15:03:50.427Z,96680.75
2022-11-29T15:06:27.411Z,96633.09
2022-11-29T15:09:04.185Z,96622.78
2022-11-29T15:11:44.499Z,96584.19
2022-11-29T15:14:28.000Z,96619.03
2022-11-29T15:17:18.727Z,96593.59
2022-11-29T15:20:29.373Z,96628.03
2022-11-29T15:23:00.966Z,96643.56
2022-11-29T15:25:32.218Z,96596.00
2022-11-29T15:28:02.840Z,96629.31
2022-11-29T15:30:34.792Z,96622.91
2022-11-29T15:33:06.660Z,96583.38
2022-11-29T15:35:36.412Z,96601.34
2022-11-29T15:38:05.316Z,96577.53
2022-11-29T15:40:37.234Z,96667.50
2022-11-29T15:43:17.115Z,96672.22
2022-11-29T15:45:49.782Z,96606.97
2022-11-29T15:48:23.495Z,96657.56
2022-11-29T15:50:59.424Z,96668.78
2022-11-29T15:53:33.568Z,96625.06
2022-11-29T15:56:06.761Z,96680.63
2022-11-29T15:58:35.750Z,96690.75
2022-11-29T16:01:05.515Z,96677.00
2022-11-29T16:03:37.151Z,96693.03
2022-11-29T16:06:10.008Z,96661.44
2022-11-29T16:08:42.881Z,96637.13
2022-11-29T16:11:19.153Z,96675.41
2022-11-29T16:14:16.688Z,96695.19
2022-11-29T16:16:47.776Z,96558.34
2022-11-29T16:19:34.402Z,96627.66
2022-11-29T16:22:16.460Z,96697.94
2022-11-29T16:25:05.183Z,96691.47
2022-11-29T16:27:37.262Z,96680.34
2022-11-29T16:30:07.164Z,96658.34
2022-11-29T16:32:38.130Z,96655.19
2022-11-29T16:35:12.478Z,96690.44
2022-11-29T16:37:43.906Z,96686.56
2022-11-29T16:40:23.653Z,96726.13
2022-11-29T16:43:20.706Z,96698.94
2022-11-29T16:45:49.050Z,96652.78
2022-11-29T16:48:30.826Z,96710.41
2022-11-29T16:51:26.135Z,96744.31
2022-11-29T16:53:55.935Z,96669.88
2022-11-29T16:56:27.289Z,96682.66
2022-11-29T16:59:25.878Z,96670.81
2022-11-29T17:01:51.724Z,96716.53
2022-11-29T17:04:24.047Z,96707.56
2022-11-29T17:06:58.484Z,96704.34
2022-11-29T17:09:29.254Z,96722.06
2022-11-29T17:11:59.950Z,96689.41
2022-11-29T17:14:30.332Z,96715.41
2022-11-29T17:17:01.143Z,96689.34
2022-11-29T17:19:30.282Z,96737.00
2022-11-29T17:21:58.867Z,96693.41
2022-11-29T17:24:27.269Z,96727.19
2022-11-29T17:26:55.551Z,96717.66
2022-11-29T17:29:23.822Z,96609.19
2022-11-29T17:31:53.557Z,96672.28
2022-11-29T17:34:22.113Z,96707.91
2022-11-29T17:36:50.932Z,96728.66
2022-11-29T17:39:20.292Z,96691.91
2022-11-29T17:41:48.754Z,96691.38
2022-11-29T17:44:17.021Z,96729.69
2022-11-29T17:46:45.275Z,96717.59
2022-11-29T17:49:14.847Z,96665.94
2022-11-29T17:51:52.237Z,96737.13
2022-11-29T17:54:22.083Z,96696.53
2022-11-29T17:56:50.744Z,96752.97
2022-11-29T17:59:19.298Z,96670.94
2022-11-29T18:01:48.107Z,96744.44
2022-11-29T18:04:18.148Z,96755.13
2022-11-29T18:06:50.152Z,96704.75
2022-11-29T18:09:20.070Z,96723.31
2022-11-29T18:11:50.698Z,96716.44
2022-11-29T18:14:22.686Z,96567.69
2022-11-29T18:16:51.326Z,96661.31
2022-11-29T18:19:22.973Z,96706.00
2022-11-29T18:21:51.487Z,96715.25
2022-11-29T18:24:20.266Z,96723.09
2022-11-29T18:26:49.069Z,96713.53
2022-11-29T18:29:17.581Z,96766.53
2022-11-29T18:31:47.484Z,96755.84
2022-11-29T18:34:16.402Z,96641.00
2022-11-29T18:36:48.035Z,96690.28
2022-11-29T18:39:19.159Z,96744.00
2022-11-29T18:41:49.563Z,96703.91
2022-11-29T18:44:21.491Z,96733.38
2022-11-29T18:46:49.924Z,96747.31
2022-11-29T18:49:19.438Z,96724.97
2022-11-29T18:51:50.351Z,96738.91
2022-11-29T18:54:19.669Z,96699.44
2022-11-29T18:56:50.884Z,96734.06
2022-11-29T18:59:19.309Z,96769.53
2022-11-29T19:01:51.647Z,96744.94
2022-11-29T19:04:21.825Z,96748.75
2022-11-29T19:06:51.481Z,96718.19
2022-11-29T19:09:22.417Z,96556.56
2022-11-29T19:11:50.951Z,96751.47
2022-11-29T19:14:19.921Z,96717.13
2022-11-29T19:16:50.668Z,96731.72
2022-11-29T19:19:19.817Z,96719.63
2022-11-29T19:21:48.810Z,96608.41
2022-11-29T19:24:19.907Z,96726.44
2022-11-29T19:26:50.277Z,96772.78
2022-11-29T19:29:18.704Z,96723.88
2022-11-29T19:31:47.124Z,96734.50
2022-11-29T19:34:15.461Z,96748.97
2022-11-29T19:36:45.017Z,96733.97
2022-11-29T19:39:16.429Z,96764.56
2022-11-29T19:41:48.050Z,96737.06
2022-11-29T19:44:16.641Z,96776.88
2022-11-29T19:46:48.603Z,96728.31
2022-11-29T19:49:17.527Z,96671.66
2022-11-29T19:51:45.834Z,96787.31
2022-11-29T19:54:14.182Z,96770.06
2022-11-29T19:56:42.733Z,96813.75
2022-11-29T19:59:12.358Z,96775.91
2022-11-29T20:01:42.284Z,96799.13
2022-11-29T20:04:14.012Z,96700.88
2022-11-29T20:06:42.718Z,96810.00
2022-11-29T20:09:11.859Z,96728.03
2022-11-29T20:11:40.345Z,96713.97
2022-11-29T20:14:09.227Z,96773.09
2022-11-29T20:16:39.578Z,96734.31
2022-11-29T20:19:12.631Z,96786.63
2022-11-29T20:21:44.672Z,96747.06
2022-11-29T20:24:15.100Z,96744.75
2022-11-29T20:26:46.128Z,96761.38
2022-11-29T20:29:15.119Z,96771.44
2022-11-29T20:31:50.696Z,96810.63
2022-11-29T20:34:20.539Z,96738.41
2022-11-29T20:37:20.027Z,96735.91
2022-11-29T20:39:54.174Z,96801.56
2022-11-29T20:42:59.579Z,96785.75
2022-11-29T20:45:28.868Z,96770.78
2022-11-29T20:48:03.922Z,96726.50
2022-11-29T20:50:33.780Z,96797.56
2022-11-29T20:53:17.144Z,96782.31
2022-11-29T20:55:48.263Z,96782.03
2022-11-29T20:58:18.282Z,96749.72
2022-11-29T21:00:47.025Z,96854.91
2022-11-29T21:03:18.622Z,96823.28
2022-11-29T21:05:47.841Z,96784.91
2022-11-29T21:08:17.875Z,96702.56
2022-11-29T21:10:46.511Z,96790.41
2022-11-29T21:13:16.168Z,96776.66
2022-11-29T21:15:45.445Z,96825.28
2022-11-29T21:18:26.198Z,96733.19
2022-11-29T21:21:09.180Z,96778.75
2022-11-29T21:23:53.739Z,96817.50
2022-11-29T21:26:26.075Z,96758.84
2022-11-29T21:29:13.075Z,96795.47
2022-11-29T21:31:42.173Z,96813.84
2022-11-29T21:34:14.575Z,96803.41
2022-11-29T21:36:44.912Z,96748.59
2022-11-29T21:39:16.805Z,96672.13
2022-11-29T21:41:45.094Z,96798.41
2022-11-29T21:44:13.331Z,96742.78
2022-11-29T21:46:41.642Z,96803.91
2022-11-29T21:49:11.363Z,96832.53
2022-11-29T21:51:39.683Z,96789.41
2022-11-29T21:54:07.935Z,96782.69
2022-11-29T21:56:36.250Z,96791.81
2022-11-29T21:59:05.051Z,96767.88
2022-11-29T22:01:34.085Z,96827.91
2022-11-29T22:04:02.565Z,96783.03
2022-11-29T22:06:32.171Z,96780.63
2022-11-29T22:09:00.755Z,96817.50
2022-11-29T22:11:31.944Z,96835.94
2022-11-29T22:14:15.155Z,96788.47
2022-11-29T22:16:44.540Z,96800.13
2022-11-29T22:19:14.751Z,96786.25
2022-11-29T22:21:46.568Z,96783.03
2022-11-29T22:24:16.852Z,96829.41
2022-11-29T22:26:46.001Z,96818.69
2022-11-29T22:29:14.922Z,96819.56
2022-11-29T22:31:44.095Z,96853.72
2022-11-29T22:34:12.844Z,96819.56
2022-11-29T22:36:41.768Z,96786.50
2022-11-29T22:39:11.593Z,96831.06
2022-11-29T22:41:41.438Z,96813.75
2022-11-29T22:44:10.478Z,96782.91
2022-11-29T22:46:41.323Z,96788.75
2022-11-29T22:49:10.592Z,96835.72
2022-11-29T22:51:40.088Z,96810.13
2022-11-29T22:54:11.579Z,96734.66
2022-11-29T22:56:42.511Z,96809.56
2022-11-29T22:59:11.073Z,96804.84
2022-11-29T23:01:41.894Z,96832.84
2022-11-29T23:04:12.511Z,96806.28
2022-11-29T23:06:46.487Z,96818.84
2022-11-29T23:09:21.191Z,96813.63
2022-11-29T23:11:53.032Z,96772.38
2022-11-29T23:14:23.103Z,96794.19
2022-11-29T23:16:51.629Z,96816.00
2022-11-29T23:19:20.714Z,96798.41
2022-11-29T23:21:49.158Z,96798.91
2022-11-29T23:24:18.848Z,96830.81
2022-11-29T23:26:48.306Z,96825.72
2022-11-29T23:29:19.212Z,96791.59
2022-11-29T23:31:50.209Z,96822.03
2022-11-29T23:34:18.711Z,96807.50
2022-11-29T23:36:52.427Z,96826.66
2022-11-29T23:39:22.675Z,96785.38
2022-11-29T23:41:50.964Z,96783.47
2022-11-29T23:44:19.229Z,96787.31
2022-11-29T23:46:47.523Z,96816.22
2022-11-29T23:49:15.831Z,96802.13
2022-11-29T23:51:44.138Z,96820.16
2022-11-29T23:54:12.366Z,96826.75
2022-11-29T23:56:41.956Z,96802.13
2022-11-29T23:59:10.246Z,96839.44
